createdAt,value
2023-04-19T00:00:38.338Z,11.33
2023-04-19T00:03:52.527Z,11.43
2023-04-19T00:07:05.029Z,11.34
2023-04-19T00:10:18.106Z,11.20
2023-04-19T00:13:30.187Z,11.23
2023-04-19T00:16:42.326Z,11.27
2023-04-19T00:19:54.380Z,11.32
2023-04-19T00:23:06.633Z,11.38
2023-04-19T00:26:18.937Z,11.41
2023-04-19T00:29:32.677Z,11.43
2023-04-19T00:32:45.148Z,11.43
2023-04-19T00:35:57.436Z,11.40
2023-04-19T00:39:09.906Z,11.42
2023-04-19T00:42:23.562Z,11.43
2023-04-19T00:45:37.659Z,11.39
2023-04-19T00:48:50.155Z,11.39
2023-04-19T00:52:02.548Z,11.37
2023-04-19T00:55:16.472Z,11.35
2023-04-19T00:58:29.666Z,11.31
2023-04-19T01:01:41.841Z,11.30
2023-04-19T01:04:54.012Z,11.28
2023-04-19T01:08:06.156Z,11.25
2023-04-19T01:11:18.361Z,11.23
2023-04-19T01:14:30.547Z,11.21
2023-04-19T01:17:43.281Z,11.18
2023-04-19T01:20:55.314Z,11.16
2023-04-19T01:24:07.595Z,11.15
2023-04-19T01:27:20.175Z,11.14
2023-04-19T01:30:32.609Z,11.09
2023-04-19T01:33:44.601Z,11.07
2023-04-19T01:36:56.706Z,11.04
2023-04-19T01:40:09.570Z,11.05
2023-04-19T01:43:23.778Z,11.06
2023-04-19T01:46:36.871Z,11.05
2023-04-19T01:49:48.951Z,11.03
2023-04-19T01:53:01.374Z,11.02
2023-04-19T01:56:14.104Z,10.98
2023-04-19T01:59:26.043Z,10.92
2023-04-19T02:02:38.171Z,10.92
2023-04-19T02:05:50.565Z,10.89
2023-04-19T02:09:04.868Z,10.93
2023-04-19T02:12:17.079Z,10.90
2023-04-19T02:15:29.876Z,10.84
2023-04-19T02:18:42.682Z,10.78
2023-04-19T02:21:56.947Z,10.83
2023-04-19T02:25:09.586Z,10.85
2023-04-19T02:28:21.721Z,10.83
2023-04-19T02:31:34.839Z,10.83
2023-04-19T02:34:47.116Z,10.80
2023-04-19T02:37:59.066Z,10.79
2023-04-19T02:41:11.849Z,10.79
2023-04-19T02:44:25.018Z,10.78
2023-04-19T02:47:37.020Z,10.74
2023-04-19T02:50:49.276Z,10.71
2023-04-19T02:54:01.917Z,10.70
2023-04-19T02:57:16.041Z,10.67
2023-04-19T03:00:28.636Z,10.66
2023-04-19T03:03:42.846Z,10.65
2023-04-19T03:06:55.278Z,10.63
2023-04-19T03:10:07.580Z,10.62
2023-04-19T03:13:19.703Z,10.60
2023-04-19T03:16:32.172Z,10.47
2023-04-19T03:19:44.502Z,10.45
2023-04-19T03:22:56.777Z,10.36
2023-04-19T03:26:10.389Z,10.17
2023-04-19T03:29:24.250Z,10.19
2023-04-19T03:32:39.296Z,10.12
2023-04-19T03:35:52.953Z,10.09
2023-04-19T03:39:06.787Z,10.07
2023-04-19T03:42:20.235Z,10.06
2023-04-19T03:45:40.044Z,9.94
2023-04-19T03:48:52.579Z,9.90
2023-04-19T03:52:04.632Z,9.89
2023-04-19T03:55:19.543Z,9.82
2023-04-19T03:58:31.991Z,9.70
2023-04-19T04:01:46.088Z,9.71
2023-04-19T04:05:02.697Z,9.58
2023-04-19T04:08:15.139Z,9.55
2023-04-19T04:11:27.638Z,9.61
2023-04-19T04:14:40.117Z,9.56
2023-04-19T04:17:52.539Z,9.58
2023-04-19T04:21:05.445Z,9.52
2023-04-19T04:24:20.404Z,9.56
2023-04-19T04:27:37.712Z,9.67
2023-04-19T04:30:52.103Z,9.71
2023-04-19T04:34:04.800Z,9.72
2023-04-19T04:37:18.088Z,9.65
2023-04-19T04:40:32.211Z,9.74
2023-04-19T04:43:46.479Z,9.85
2023-04-19T04:46:58.692Z,9.91
2023-04-19T04:50:14.932Z,9.88
2023-04-19T04:53:27.558Z,9.95
2023-04-19T04:56:40.255Z,9.99
2023-04-19T04:59:53.456Z,10.00
2023-04-19T05:03:07.142Z,9.96
2023-04-19T05:06:21.683Z,9.96
2023-04-19T05:09:33.911Z,9.96
2023-04-19T05:12:47.112Z,9.98
2023-04-19T05:16:00.253Z,9.93
2023-04-19T05:19:13.190Z,9.93
2023-04-19T05:22:27.793Z,10.00
2023-04-19T05:25:40.584Z,9.96
2023-04-19T05:28:53.374Z,9.87
2023-04-19T05:32:08.109Z,9.92
2023-04-19T05:35:22.150Z,9.89
2023-04-19T05:38:34.538Z,9.88
2023-04-19T05:41:47.486Z,9.86
2023-04-19T05:44:59.699Z,9.88
2023-04-19T05:48:14.136Z,9.84
2023-04-19T05:51:28.834Z,9.85
2023-04-19T05:54:44.221Z,9.91
2023-04-19T05:57:57.148Z,9.88
2023-04-19T06:01:10.378Z,9.84
2023-04-19T06:04:23.061Z,9.83
2023-04-19T06:07:40.735Z,9.81
2023-04-19T06:10:55.768Z,9.70
2023-04-19T06:14:05.811Z,9.73
2023-04-19T06:17:20.595Z,9.78
2023-04-19T06:20:32.965Z,9.77
2023-04-19T06:23:45.313Z,9.79
2023-04-19T06:26:57.424Z,9.74
2023-04-19T06:30:11.591Z,9.75
2023-04-19T06:33:23.778Z,9.78
2023-04-19T06:36:37.236Z,9.79
2023-04-19T06:39:49.592Z,9.74
2023-04-19T06:43:02.373Z,9.81
2023-04-19T06:46:17.205Z,9.85
2023-04-19T06:49:29.292Z,9.86
2023-04-19T06:52:41.419Z,9.98
2023-04-19T06:55:54.030Z,9.91
2023-04-19T06:59:06.322Z,9.91
2023-04-19T07:02:18.667Z,9.96
2023-04-19T07:05:31.664Z,9.91
2023-04-19T07:11:58.321Z,9.93
2023-04-19T07:15:12.200Z,10.03
2023-04-19T07:18:24.317Z,10.05
2023-04-19T07:21:36.414Z,9.98
2023-04-19T07:24:48.367Z,10.00
2023-04-19T07:28:01.814Z,10.01
2023-04-19T07:31:16.533Z,10.04
2023-04-19T07:34:28.561Z,10.18
2023-04-19T07:37:40.844Z,10.22
2023-04-19T07:40:53.025Z,10.21
2023-04-19T07:44:07.887Z,10.21
2023-04-19T07:47:20.145Z,10.14
2023-04-19T07:50:32.785Z,10.10
2023-04-19T07:53:46.895Z,9.79
2023-04-19T07:56:59.343Z,9.89
2023-04-19T08:00:15.395Z,9.74
2023-04-19T08:03:27.694Z,9.68
2023-04-19T08:06:40.717Z,9.63
2023-04-19T08:09:52.919Z,9.67
2023-04-19T08:13:06.320Z,9.59
2023-04-19T08:17:01.469Z,9.58
2023-04-19T08:19:33.080Z,9.58
2023-04-19T08:22:45.877Z,9.66
2023-04-19T08:25:58.156Z,9.81
2023-04-19T08:29:10.256Z,9.90
2023-04-19T08:32:22.720Z,9.78
2023-04-19T08:35:35.391Z,9.93
2023-04-19T08:38:54.793Z,9.91
2023-04-19T08:42:12.527Z,9.91
2023-04-19T08:45:29.386Z,9.86
2023-04-19T08:48:43.195Z,9.89
2023-04-19T08:51:57.233Z,9.71
2023-04-19T08:55:13.115Z,9.73
2023-04-19T08:58:33.934Z,9.83
2023-04-19T09:01:40.543Z,9.79
2023-04-19T09:04:54.068Z,9.71
2023-04-19T09:08:31.262Z,9.55
2023-04-19T09:11:45.642Z,9.50
2023-04-19T09:15:01.856Z,9.56
2023-04-19T09:18:14.515Z,9.59
2023-04-19T09:21:38.834Z,9.63
2023-04-19T09:28:16.818Z,9.65
2023-04-19T09:31:47.849Z,9.54
2023-04-19T09:34:48.287Z,9.52
2023-04-19T09:38:09.777Z,9.45
2023-04-19T09:41:22.524Z,9.28
2023-04-19T09:45:02.120Z,9.25
2023-04-19T09:47:50.247Z,9.37
2023-04-19T09:51:08.870Z,9.36
2023-04-19T09:54:21.291Z,9.34
2023-04-19T09:57:34.154Z,9.27
2023-04-19T10:00:51.336Z,9.25
2023-04-19T10:04:14.801Z,9.24
2023-04-19T10:07:30.242Z,9.36
2023-04-19T10:10:41.807Z,9.38
2023-04-19T10:13:48.420Z,9.31
2023-04-19T10:17:02.564Z,9.32
2023-04-19T10:20:23.462Z,9.36
2023-04-19T10:23:39.044Z,9.20
2023-04-19T10:27:16.409Z,9.16
2023-04-19T10:30:31.376Z,9.27
2023-04-19T10:33:46.521Z,9.12
2023-04-19T10:36:58.862Z,9.15
2023-04-19T10:40:13.804Z,9.11
2023-04-19T10:43:27.101Z,9.02
2023-04-19T10:46:46.434Z,8.97
2023-04-19T10:49:58.744Z,9.08
2023-04-19T10:53:53.772Z,9.09
2023-04-19T10:57:08.772Z,9.22
2023-04-19T11:00:31.720Z,9.23
2023-04-19T11:04:02.772Z,9.12
2023-04-19T11:07:15.720Z,9.08
2023-04-19T11:10:37.732Z,9.24
2023-04-19T11:13:51.355Z,9.18
2023-04-19T11:17:03.572Z,9.27
2023-04-19T11:20:18.719Z,9.39
2023-04-19T11:23:30.971Z,9.51
2023-04-19T11:26:43.359Z,9.53
2023-04-19T11:29:56.056Z,9.66
2023-04-19T11:33:08.462Z,9.82
2023-04-19T11:36:20.996Z,9.92
2023-04-19T11:39:34.238Z,9.94
2023-04-19T11:42:46.640Z,9.87
2023-04-19T11:45:59.229Z,9.97
2023-04-19T11:49:11.648Z,10.02
2023-04-19T11:52:30.472Z,10.04
2023-04-19T11:55:43.287Z,10.03
2023-04-19T11:58:55.547Z,9.97
2023-04-19T12:02:17.298Z,9.95
2023-04-19T12:05:32.084Z,10.05
2023-04-19T12:08:51.357Z,10.02
2023-04-19T12:12:03.811Z,10.07
2023-04-19T12:15:17.825Z,10.04
2023-04-19T12:18:30.414Z,10.01
2023-04-19T12:21:42.795Z,10.01
2023-04-19T12:24:57.804Z,9.94
2023-04-19T12:28:11.224Z,10.01
2023-04-19T12:31:23.715Z,9.94
2023-04-19T12:34:36.616Z,10.09
2023-04-19T12:37:48.779Z,10.31
2023-04-19T12:41:01.231Z,10.50
2023-04-19T12:44:13.585Z,10.59
2023-04-19T12:47:25.767Z,10.51
2023-04-19T12:50:38.292Z,10.32
2023-04-19T12:53:56.566Z,10.39
2023-04-19T12:57:08.761Z,10.38
2023-04-19T13:00:22.997Z,10.34
2023-04-19T13:03:36.943Z,10.34
2023-04-19T13:06:50.299Z,10.26
2023-04-19T13:10:02.506Z,10.28
2023-04-19T13:13:14.579Z,10.27
2023-04-19T13:16:27.138Z,10.43
2023-04-19T13:19:39.730Z,10.51
2023-04-19T13:22:51.774Z,10.58
2023-04-19T13:26:04.043Z,10.45
2023-04-19T13:29:16.296Z,10.50
2023-04-19T13:32:28.719Z,10.50
2023-04-19T13:35:40.922Z,10.39
2023-04-19T13:38:53.884Z,10.61
2023-04-19T13:42:06.595Z,10.47
2023-04-19T13:45:20.143Z,10.54
2023-04-19T13:48:33.176Z,10.56
2023-04-19T13:51:50.235Z,10.70
2023-04-19T13:54:59.425Z,10.83
2023-04-19T13:58:11.854Z,10.90
2023-04-19T14:01:24.257Z,10.94
2023-04-19T14:04:36.989Z,10.74
2023-04-19T14:07:49.273Z,10.81
2023-04-19T14:11:01.818Z,10.54
2023-04-19T14:14:14.336Z,10.55
2023-04-19T14:17:26.745Z,10.62
2023-04-19T14:20:39.137Z,10.67
2023-04-19T14:23:51.544Z,10.55
2023-04-19T14:27:11.115Z,10.71
2023-04-19T14:30:19.548Z,10.90
2023-04-19T14:33:32.129Z,11.01
2023-04-19T14:36:44.664Z,10.87
2023-04-19T14:39:57.071Z,10.90
2023-04-19T14:43:09.192Z,10.93
2023-04-19T14:46:21.284Z,10.98
2023-04-19T14:49:33.921Z,11.18
2023-04-19T14:52:46.410Z,11.20
2023-04-19T14:55:58.614Z,11.09
2023-04-19T14:59:11.542Z,11.18
2023-04-19T15:02:25.345Z,11.05
2023-04-19T15:05:40.657Z,11.02
2023-04-19T15:08:53.525Z,10.97
2023-04-19T15:12:06.014Z,10.93
2023-04-19T15:15:19.365Z,10.85
2023-04-19T15:18:32.270Z,10.89
2023-04-19T15:21:44.535Z,10.78
2023-04-19T15:24:58.099Z,10.78
2023-04-19T15:28:10.723Z,10.73
2023-04-19T15:31:23.030Z,10.73
2023-04-19T15:34:35.437Z,10.69
2023-04-19T15:37:47.848Z,10.66
2023-04-19T15:41:01.284Z,10.58
2023-04-19T15:44:13.690Z,10.58
2023-04-19T15:47:26.033Z,10.58
2023-04-19T15:50:41.792Z,10.57
2023-04-19T15:53:54.518Z,10.55
2023-04-19T15:57:06.630Z,10.54
2023-04-19T16:00:21.755Z,10.48
2023-04-19T16:03:34.475Z,10.52
2023-04-19T16:06:47.162Z,10.55
2023-04-19T16:10:00.842Z,10.52
2023-04-19T16:13:13.612Z,10.56
2023-04-19T16:16:27.111Z,10.57
2023-04-19T16:19:39.948Z,10.48
2023-04-19T16:22:52.530Z,10.42
2023-04-19T16:26:04.778Z,10.48
2023-04-19T16:29:17.010Z,10.47
2023-04-19T16:32:29.541Z,10.45
2023-04-19T16:35:42.181Z,10.46
2023-04-19T16:38:54.412Z,10.37
2023-04-19T16:42:06.635Z,10.36
2023-04-19T16:45:19.139Z,10.35
2023-04-19T16:48:32.725Z,10.32
2023-04-19T16:51:46.368Z,10.27
2023-04-19T16:54:58.512Z,10.21
2023-04-19T16:58:10.828Z,10.16
2023-04-19T17:01:25.742Z,10.17
2023-04-19T17:04:38.220Z,10.12
2023-04-19T17:07:51.339Z,10.06
2023-04-19T17:11:03.892Z,10.13
2023-04-19T17:14:16.285Z,10.16
2023-04-19T17:17:28.435Z,10.15
2023-04-19T17:20:40.892Z,10.18
2023-04-19T17:23:54.550Z,10.21
2023-04-19T17:27:06.931Z,10.21
2023-04-19T17:30:21.005Z,10.13
2023-04-19T17:33:33.504Z,10.16
2023-04-19T17:36:45.840Z,10.00
2023-04-19T17:39:58.232Z,9.89
2023-04-19T17:43:10.727Z,9.95
2023-04-19T17:46:22.993Z,9.98
2023-04-19T17:49:35.347Z,9.96
2023-04-19T17:52:47.653Z,9.92
2023-04-19T17:55:59.845Z,9.89
2023-04-19T17:59:12.696Z,9.85
2023-04-19T18:02:25.080Z,9.94
2023-04-19T18:05:37.815Z,10.00
2023-04-19T18:08:49.865Z,9.98
2023-04-19T18:12:03.126Z,9.99
2023-04-19T18:15:17.643Z,9.95
2023-04-19T18:18:29.931Z,9.90
2023-04-19T18:21:42.028Z,9.87
2023-04-19T18:24:54.243Z,9.87
2023-04-19T18:28:06.900Z,9.85
2023-04-19T18:31:19.275Z,9.82
2023-04-19T18:34:31.469Z,9.83
2023-04-19T18:37:43.929Z,9.81
2023-04-19T18:40:56.640Z,9.83
2023-04-19T18:47:24.084Z,9.89
2023-04-19T18:50:37.724Z,9.77
2023-04-19T18:53:50.128Z,9.80
2023-04-19T19:00:23.404Z,9.74
2023-04-19T19:06:49.926Z,9.77
2023-04-19T19:10:10.675Z,9.75
2023-04-19T19:13:17.609Z,9.72
2023-04-19T19:16:31.134Z,9.73
2023-04-19T19:19:43.822Z,9.66
2023-04-19T19:22:55.931Z,9.70
2023-04-19T19:26:08.242Z,9.59
2023-04-19T19:29:24.955Z,9.52
2023-04-19T19:32:41.040Z,9.44
2023-04-19T19:35:56.438Z,9.36
2023-04-19T19:39:11.959Z,9.40
2023-04-19T19:42:25.898Z,9.42
2023-04-19T19:45:41.203Z,9.38
2023-04-19T19:48:54.599Z,9.36
2023-04-19T19:52:07.830Z,9.38
2023-04-19T19:55:20.204Z,9.41
2023-04-19T19:58:47.632Z,9.40
2023-04-19T20:01:46.855Z,9.33
2023-04-19T20:04:59.246Z,9.34
2023-04-19T20:08:18.522Z,9.38
2023-04-19T20:11:31.711Z,9.39
2023-04-19T20:14:46.315Z,9.38
2023-04-19T20:17:59.207Z,9.37
2023-04-19T20:21:12.048Z,9.31
2023-04-19T20:24:24.735Z,9.29
2023-04-19T20:27:37.289Z,9.32
2023-04-19T20:30:49.477Z,9.31
2023-04-19T20:34:02.133Z,9.26
2023-04-19T20:37:14.504Z,9.24
2023-04-19T20:40:27.126Z,9.27
2023-04-19T20:43:39.533Z,9.27
2023-04-19T20:46:52.454Z,9.23
2023-04-19T20:50:04.687Z,9.17
2023-04-19T20:53:16.889Z,9.18
2023-04-19T20:56:29.082Z,9.26
2023-04-19T20:59:41.492Z,9.33
2023-04-19T21:02:54.107Z,9.37
2023-04-19T21:06:06.509Z,9.38
2023-04-19T21:09:19.259Z,9.34
2023-04-19T21:12:31.597Z,9.30
2023-04-19T21:15:44.317Z,9.36
2023-04-19T21:18:56.569Z,9.42
2023-04-19T21:22:08.856Z,9.46
2023-04-19T21:25:21.202Z,9.45
2023-04-19T21:28:33.410Z,9.38
2023-04-19T21:31:45.754Z,9.37
2023-04-19T21:34:58.230Z,9.28
2023-04-19T21:38:10.846Z,9.29
2023-04-19T21:41:23.167Z,9.35
2023-04-19T21:44:35.566Z,9.39
2023-04-19T21:47:47.798Z,9.37
2023-04-19T21:50:59.911Z,9.26
2023-04-19T21:54:17.851Z,9.28
2023-04-19T21:57:27.287Z,9.28
2023-04-19T22:00:39.888Z,9.27
2023-04-19T22:03:52.490Z,9.30
2023-04-19T22:07:05.508Z,9.33
2023-04-19T22:10:18.570Z,9.32
2023-04-19T22:13:33.096Z,9.35
2023-04-19T22:16:45.835Z,9.39
2023-04-19T22:19:59.349Z,9.37
2023-04-19T22:23:11.620Z,9.33
2023-04-19T22:26:26.274Z,9.30
2023-04-19T22:29:39.859Z,9.35
2023-04-19T22:32:52.244Z,9.36
2023-04-19T22:36:04.585Z,9.40
2023-04-19T22:39:17.610Z,9.41
2023-04-19T22:42:30.056Z,9.30
2023-04-19T22:45:44.675Z,9.15
2023-04-19T22:48:58.132Z,9.13
2023-04-19T22:52:11.562Z,9.21
2023-04-19T22:55:23.874Z,9.26
2023-04-19T22:58:36.362Z,9.29
2023-04-19T23:01:48.526Z,9.31
2023-04-19T23:05:00.935Z,9.31
2023-04-19T23:08:14.242Z,9.25
2023-04-19T23:11:27.063Z,9.10
2023-04-19T23:14:39.884Z,9.03
2023-04-19T23:17:52.774Z,9.00
2023-04-19T23:21:05.202Z,9.00
2023-04-19T23:24:17.848Z,8.98
2023-04-19T23:27:30.336Z,9.00
2023-04-19T23:30:42.655Z,8.99
2023-04-19T23:33:56.292Z,8.98
2023-04-19T23:37:09.018Z,9.07
2023-04-19T23:40:21.724Z,9.13
2023-04-19T23:43:33.983Z,9.17
2023-04-19T23:46:46.330Z,9.20
2023-04-19T23:49:58.446Z,9.16
2023-04-19T23:53:10.815Z,9.18
2023-04-19T23:56:25.207Z,9.18
2023-04-19T23:59:37.475Z,9.10
